createdAt,value
2019-06-08T00:01:51.091Z,21.40
2019-06-08T00:04:22.756Z,17.00
2019-06-08T00:06:53.242Z,15.57
2019-06-08T00:09:24.089Z,12.97
2019-06-08T00:11:54.602Z,11.77
2019-06-08T00:14:25.597Z,14.03
2019-06-08T00:16:56.143Z,14.93
2019-06-08T00:19:26.486Z,14.50
2019-06-08T00:21:56.983Z,11.83
2019-06-08T00:24:27.380Z,11.70
2019-06-08T00:26:57.887Z,13.23
2019-06-08T00:29:28.356Z,11.50
2019-06-08T00:31:58.843Z,10.73
2019-06-08T00:34:29.299Z,11.53
2019-06-08T00:36:59.784Z,10.17
2019-06-08T00:39:30.246Z,13.20
2019-06-08T00:42:00.715Z,10.20
2019-06-08T00:44:31.071Z,10.60
2019-06-08T00:47:01.551Z,13.00
2019-06-08T00:49:31.922Z,10.67
2019-06-08T00:52:02.334Z,12.00
2019-06-08T00:54:32.712Z,11.90
2019-06-08T00:57:03.095Z,10.37
2019-06-08T00:59:33.535Z,10.60
2019-06-08T01:02:04.094Z,10.83
2019-06-08T01:04:34.392Z,10.90
2019-06-08T01:07:04.841Z,10.03
2019-06-08T01:09:35.318Z,11.57
2019-06-08T01:12:06.007Z,11.47
2019-06-08T01:14:36.457Z,12.40
2019-06-08T01:17:06.808Z,11.70
2019-06-08T01:19:37.260Z,9.73
2019-06-08T01:22:07.758Z,10.87
2019-06-08T01:24:38.214Z,12.80
2019-06-08T01:27:08.516Z,11.93
2019-06-08T01:29:38.883Z,10.80
2019-06-08T01:32:09.150Z,10.70
2019-06-08T01:34:39.571Z,13.30
2019-06-08T01:37:09.979Z,13.13
2019-06-08T01:39:40.418Z,14.87
2019-06-08T01:42:10.788Z,10.50
2019-06-08T01:44:41.238Z,11.80
2019-06-08T01:47:11.695Z,12.20
2019-06-08T01:49:41.995Z,12.47
2019-06-08T01:52:12.387Z,11.37
2019-06-08T01:54:42.752Z,13.40
2019-06-08T01:57:13.099Z,11.47
2019-06-08T01:59:43.539Z,11.53
2019-06-08T02:02:13.884Z,12.33
2019-06-08T02:04:44.347Z,11.40
2019-06-08T02:07:14.728Z,13.07
2019-06-08T02:09:45.082Z,13.60
2019-06-08T02:12:15.365Z,13.10
2019-06-08T02:14:45.730Z,11.53
2019-06-08T02:17:16.263Z,11.70
2019-06-08T02:19:46.589Z,12.97
2019-06-08T02:22:17.034Z,12.63
2019-06-08T02:24:47.476Z,14.00
2019-06-08T02:27:17.839Z,12.57
2019-06-08T02:29:48.319Z,12.47
2019-06-08T02:32:18.688Z,13.80
2019-06-08T02:34:49.136Z,13.63
2019-06-08T02:37:19.619Z,11.60
2019-06-08T02:39:49.971Z,11.27
2019-06-08T02:42:20.463Z,14.27
2019-06-08T02:44:50.849Z,13.30
2019-06-08T02:47:21.295Z,12.03
2019-06-08T02:49:51.639Z,12.37
2019-06-08T02:52:22.044Z,11.23
2019-06-08T02:54:52.497Z,12.73
2019-06-08T02:57:24.549Z,12.27
2019-06-08T02:59:56.401Z,11.97
2019-06-08T03:02:29.675Z,12.10
2019-06-08T03:05:02.671Z,13.33
2019-06-08T03:07:36.888Z,14.57
2019-06-08T03:10:08.276Z,11.27
2019-06-08T03:12:42.208Z,13.60
2019-06-08T03:15:15.055Z,13.93
2019-06-08T03:17:45.455Z,13.30
2019-06-08T03:20:15.891Z,14.40
2019-06-08T03:22:46.267Z,13.70
2019-06-08T03:25:16.717Z,13.57
2019-06-08T03:27:47.189Z,15.13
2019-06-08T03:30:19.449Z,13.57
2019-06-08T03:32:55.582Z,11.87
2019-06-08T03:35:21.516Z,13.67
2019-06-08T03:37:51.884Z,12.17
2019-06-08T03:40:22.287Z,13.50
2019-06-08T03:42:53.288Z,11.87
2019-06-08T03:45:24.724Z,14.30
2019-06-08T03:47:55.195Z,13.57
2019-06-08T03:50:25.607Z,12.23
2019-06-08T03:52:55.952Z,14.10
2019-06-08T03:55:26.324Z,11.40
2019-06-08T03:57:56.762Z,14.70
2019-06-08T04:00:27.059Z,13.93
2019-06-08T04:02:57.403Z,15.00
2019-06-08T04:05:27.951Z,15.67
2019-06-08T04:07:58.412Z,11.90
2019-06-08T04:10:28.802Z,15.33
2019-06-08T04:12:59.236Z,13.50
2019-06-08T04:15:29.596Z,11.70
2019-06-08T04:17:59.938Z,11.00
2019-06-08T04:20:30.413Z,11.60
2019-06-08T04:23:00.779Z,12.43
2019-06-08T04:25:31.175Z,12.27
2019-06-08T04:28:01.570Z,14.37
2019-06-08T04:30:32.030Z,12.83
2019-06-08T04:33:02.375Z,12.40
2019-06-08T04:35:32.738Z,12.20
2019-06-08T04:38:03.225Z,12.17
2019-06-08T04:40:33.583Z,12.30
2019-06-08T04:43:04.046Z,11.57
2019-06-08T04:45:34.393Z,13.60
2019-06-08T04:48:09.139Z,11.40
2019-06-08T04:50:38.524Z,13.20
2019-06-08T04:53:08.955Z,12.33
2019-06-08T04:55:40.813Z,13.43
2019-06-08T04:58:11.344Z,10.60
2019-06-08T05:00:43.372Z,12.53
2019-06-08T05:03:13.718Z,12.50
2019-06-08T05:05:45.294Z,11.67
2019-06-08T05:08:15.905Z,12.20
2019-06-08T05:10:47.404Z,13.17
2019-06-08T05:13:18.014Z,11.80
2019-06-08T05:15:50.209Z,12.33
2019-06-08T05:18:20.585Z,12.17
2019-06-08T05:20:51.430Z,11.57
2019-06-08T05:23:22.120Z,10.83
2019-06-08T05:25:52.575Z,12.27
2019-06-08T05:28:22.962Z,12.13
2019-06-08T05:30:53.390Z,9.90
2019-06-08T05:33:23.680Z,10.63
2019-06-08T05:35:54.035Z,11.00
2019-06-08T05:38:24.514Z,12.33
2019-06-08T05:40:54.871Z,13.30
2019-06-08T05:43:25.362Z,9.17
2019-06-08T05:45:55.734Z,11.37
2019-06-08T05:48:26.204Z,10.13
2019-06-08T05:51:03.599Z,10.40
2019-06-08T05:53:28.543Z,11.33
2019-06-08T05:55:59.076Z,11.40
2019-06-08T05:58:29.455Z,10.37
2019-06-08T06:00:59.839Z,83.50
2019-06-08T06:03:30.298Z,11.27
2019-06-08T06:06:00.643Z,12.93
2019-06-08T06:08:31.012Z,14.90
2019-06-08T06:11:01.606Z,10.40
2019-06-08T06:13:31.995Z,10.53
2019-06-08T06:16:02.372Z,13.28
2019-06-08T06:18:32.751Z,9.75
2019-06-08T06:21:11.264Z,9.20
2019-06-08T06:23:35.082Z,8.75
2019-06-08T06:26:05.498Z,9.88
2019-06-08T06:28:35.809Z,8.10
2019-06-08T06:31:06.191Z,11.12
2019-06-08T06:33:36.648Z,9.03
2019-06-08T06:36:07.028Z,7.00
2019-06-08T06:38:37.387Z,11.95
2019-06-08T06:41:07.886Z,10.80
2019-06-08T06:43:38.324Z,8.53
2019-06-08T06:46:08.886Z,9.53
2019-06-08T06:48:39.274Z,9.85
2019-06-08T06:51:24.994Z,10.43
2019-06-08T06:53:42.781Z,9.73
2019-06-08T06:56:13.295Z,6.85
2019-06-08T06:58:45.019Z,8.60
2019-06-08T07:01:15.530Z,7.50
2019-06-08T07:03:46.086Z,12.15
2019-06-08T07:06:16.458Z,9.48
2019-06-08T07:08:48.164Z,10.30
2019-06-08T07:11:18.803Z,8.50
2019-06-08T07:13:49.196Z,8.50
2019-06-08T07:16:19.739Z,9.78
2019-06-08T07:18:50.270Z,7.50
2019-06-08T07:21:20.654Z,8.68
2019-06-08T07:23:51.521Z,10.50
2019-06-08T07:26:23.026Z,10.10
2019-06-08T07:28:54.038Z,7.58
2019-06-08T07:31:25.703Z,8.73
2019-06-08T07:33:56.134Z,8.15
2019-06-08T07:36:26.494Z,8.45
2019-06-08T07:38:56.944Z,7.92
2019-06-08T07:41:27.339Z,10.90
2019-06-08T07:43:58.522Z,10.00
2019-06-08T07:46:29.153Z,12.98
2019-06-08T07:48:59.511Z,11.12
2019-06-08T07:51:29.976Z,10.25
2019-06-08T07:54:00.455Z,10.98
2019-06-08T07:56:30.836Z,8.20
2019-06-08T07:59:01.295Z,7.85
2019-06-08T08:01:36.199Z,8.63
2019-06-08T08:04:03.627Z,8.88
2019-06-08T08:06:34.099Z,8.68
2019-06-08T08:09:05.917Z,10.90
2019-06-08T08:11:36.258Z,7.80
2019-06-08T08:14:06.734Z,7.72
2019-06-08T08:16:37.109Z,9.88
2019-06-08T08:19:07.603Z,10.70
2019-06-08T08:21:40.771Z,8.63
2019-06-08T08:24:10.205Z,8.05
2019-06-08T08:26:40.679Z,9.30
2019-06-08T08:29:11.037Z,8.73
2019-06-08T08:31:41.415Z,8.33
2019-06-08T08:34:12.023Z,5.53
2019-06-08T08:36:42.515Z,5.85
2019-06-08T08:39:12.975Z,9.90
2019-06-08T08:41:43.763Z,11.68
2019-06-08T08:44:14.503Z,6.70
2019-06-08T08:46:44.944Z,7.12
2019-06-08T08:49:15.319Z,7.90
2019-06-08T08:51:47.572Z,8.58
2019-06-08T08:54:18.419Z,7.17
2019-06-08T08:56:52.162Z,9.45
2019-06-08T08:59:20.910Z,6.42
2019-06-08T09:01:52.605Z,7.15
2019-06-08T09:04:23.349Z,6.95
2019-06-08T09:06:55.331Z,7.10
2019-06-08T09:09:28.694Z,9.53
2019-06-08T09:12:02.291Z,9.38
2019-06-08T09:14:29.752Z,9.00
2019-06-08T09:17:02.116Z,14.90
2019-06-08T09:19:32.263Z,7.60
2019-06-08T09:22:03.885Z,6.03
2019-06-08T09:24:34.585Z,9.53
2019-06-08T09:27:07.806Z,8.40
2019-06-08T09:29:38.886Z,9.80
2019-06-08T09:32:09.303Z,6.53
2019-06-08T09:34:39.683Z,6.50
2019-06-08T09:37:10.123Z,8.50
2019-06-08T09:39:40.516Z,7.13
2019-06-08T09:42:10.987Z,12.07
2019-06-08T09:44:41.348Z,7.57
2019-06-08T09:47:12.641Z,9.43
2019-06-08T09:49:43.294Z,7.33
2019-06-08T09:52:13.660Z,5.27
2019-06-08T09:54:44.232Z,12.57
2019-06-08T09:57:14.722Z,8.30
2019-06-08T09:59:45.191Z,8.80
2019-06-08T10:02:18.207Z,6.70
2019-06-08T10:04:48.371Z,11.17
2019-06-08T10:07:18.893Z,7.73
2019-06-08T10:09:50.118Z,7.37
2019-06-08T10:12:20.623Z,7.50
2019-06-08T10:14:50.994Z,8.53
2019-06-08T10:17:21.993Z,7.07
2019-06-08T10:19:52.413Z,7.17
2019-06-08T10:22:22.879Z,7.43
2019-06-08T10:24:55.305Z,7.57
2019-06-08T10:27:28.215Z,7.37
2019-06-08T10:30:00.013Z,7.03
2019-06-08T10:32:29.720Z,8.73
2019-06-08T10:35:02.296Z,6.90
2019-06-08T10:37:32.259Z,8.30
2019-06-08T10:40:05.443Z,8.27
2019-06-08T10:42:34.599Z,9.70
2019-06-08T10:45:10.389Z,8.77
2019-06-08T10:47:38.331Z,11.43
2019-06-08T10:50:14.931Z,8.80
2019-06-08T10:52:41.591Z,8.50
2019-06-08T10:55:12.660Z,7.87
2019-06-08T10:57:43.225Z,10.33
2019-06-08T11:00:20.803Z,7.37
2019-06-08T11:02:48.699Z,6.87
2019-06-08T11:05:18.296Z,6.27
2019-06-08T11:07:48.794Z,9.57
2019-06-08T11:10:19.631Z,10.87
2019-06-08T11:12:50.023Z,11.67
2019-06-08T11:15:20.470Z,10.33
2019-06-08T11:17:50.952Z,7.17
2019-06-08T11:20:21.299Z,8.83
2019-06-08T11:22:51.654Z,8.97
2019-06-08T11:25:22.000Z,9.10
2019-06-08T11:27:52.454Z,8.70
2019-06-08T11:30:26.792Z,10.43
2019-06-08T11:32:54.951Z,9.18
2019-06-08T11:35:25.326Z,8.38
2019-06-08T11:37:58.307Z,7.00
2019-06-08T11:40:27.963Z,7.25
2019-06-08T11:42:58.673Z,7.70
2019-06-08T11:45:30.320Z,8.03
2019-06-08T11:48:02.579Z,7.23
2019-06-08T11:50:41.508Z,7.37
2019-06-08T11:53:13.535Z,9.37
2019-06-08T11:55:43.177Z,8.67
2019-06-08T11:58:13.908Z,11.17
2019-06-08T12:01:01.822Z,7.45
2019-06-08T12:03:31.136Z,9.23
2019-06-08T12:06:02.191Z,9.43
2019-06-08T12:08:32.774Z,11.43
2019-06-08T12:11:04.251Z,11.57
2019-06-08T12:13:35.347Z,10.47
2019-06-08T12:16:09.298Z,8.70
2019-06-08T12:18:40.074Z,9.20
2019-06-08T12:21:11.327Z,9.57
2019-06-08T12:23:41.952Z,10.33
2019-06-08T12:26:12.343Z,10.67
2019-06-08T12:28:42.682Z,10.90
2019-06-08T12:31:17.345Z,10.37
2019-06-08T12:33:45.219Z,13.87
2019-06-08T12:36:17.044Z,14.07
2019-06-08T12:38:48.656Z,9.20
2019-06-08T12:41:19.366Z,12.17
2019-06-08T12:43:49.899Z,11.10
2019-06-08T12:46:21.574Z,10.80
2019-06-08T12:48:52.070Z,11.73
2019-06-08T12:51:22.454Z,12.73
2019-06-08T12:53:52.902Z,13.80
2019-06-08T12:56:24.148Z,13.97
2019-06-08T12:58:54.743Z,9.73
2019-06-08T13:01:25.167Z,11.17
2019-06-08T13:03:57.925Z,10.37
2019-06-08T13:06:28.286Z,11.07
2019-06-08T13:08:58.923Z,11.50
2019-06-08T13:11:29.652Z,14.53
2019-06-08T13:14:00.108Z,12.23
2019-06-08T13:16:30.652Z,10.80
2019-06-08T13:19:01.181Z,16.67
2019-06-08T13:21:35.296Z,11.10
2019-06-08T13:24:03.661Z,11.40
2019-06-08T13:26:34.019Z,10.63
2019-06-08T13:29:04.375Z,12.23
2019-06-08T13:31:34.831Z,11.47
2019-06-08T13:34:05.350Z,10.73
2019-06-08T13:36:35.883Z,12.43
2019-06-08T13:39:09.836Z,12.97
2019-06-08T13:41:39.051Z,11.83
2019-06-08T13:44:09.530Z,10.03
2019-06-08T13:46:39.986Z,11.83
2019-06-08T13:49:10.375Z,11.97
2019-06-08T13:51:40.846Z,12.77
2019-06-08T13:54:11.182Z,11.47
2019-06-08T13:56:41.695Z,10.90
2019-06-08T13:59:13.311Z,10.23
2019-06-08T14:01:44.026Z,10.10
2019-06-08T14:04:14.985Z,10.60
2019-06-08T14:06:45.671Z,10.70
2019-06-08T14:09:16.930Z,13.20
2019-06-08T14:11:48.150Z,9.77
2019-06-08T14:14:19.990Z,9.50
2019-06-08T14:16:50.695Z,11.70
2019-06-08T14:19:23.258Z,11.97
2019-06-08T14:21:53.355Z,7.97
2019-06-08T14:24:28.077Z,10.67
2019-06-08T14:26:58.289Z,11.07
2019-06-08T14:29:28.898Z,10.67
2019-06-08T14:32:00.041Z,10.90
2019-06-08T14:34:31.234Z,10.10
2019-06-08T14:37:01.732Z,8.43
2019-06-08T14:39:32.135Z,11.73
2019-06-08T14:42:02.535Z,10.23
2019-06-08T14:44:34.026Z,10.80
2019-06-08T14:47:16.590Z,13.97
2019-06-08T14:49:48.858Z,11.20
2019-06-08T14:52:21.899Z,8.63
2019-06-08T14:54:51.418Z,14.07
2019-06-08T14:57:21.870Z,10.67
2019-06-08T14:59:52.159Z,13.47
2019-06-08T15:02:23.474Z,9.33
2019-06-08T15:04:54.011Z,11.23
2019-06-08T15:07:26.129Z,9.20
2019-06-08T15:09:58.137Z,7.47
2019-06-08T15:12:30.108Z,8.60
2019-06-08T15:15:00.471Z,7.10
2019-06-08T15:17:32.115Z,8.00
2019-06-08T15:20:02.753Z,6.67
2019-06-08T15:22:33.263Z,6.53
2019-06-08T15:25:03.819Z,7.00
2019-06-08T15:27:34.297Z,5.00
2019-06-08T15:30:05.271Z,7.83
2019-06-08T15:32:38.559Z,9.10
2019-06-08T15:35:08.201Z,6.00
2019-06-08T15:37:40.850Z,5.83
2019-06-08T15:40:10.986Z,5.73
2019-06-08T15:42:41.346Z,5.73
2019-06-08T15:45:11.815Z,4.43
2019-06-08T15:47:42.083Z,6.50
2019-06-08T15:50:12.927Z,4.50
2019-06-08T15:52:43.491Z,6.00
2019-06-08T15:55:13.935Z,6.93
2019-06-08T15:57:44.302Z,3.80
2019-06-08T16:00:14.755Z,5.17
2019-06-08T16:02:45.138Z,3.70
2019-06-08T16:05:15.654Z,6.00
2019-06-08T16:07:46.035Z,4.70
2019-06-08T16:10:16.410Z,6.67
2019-06-08T16:12:46.930Z,4.30
2019-06-08T16:15:17.398Z,3.43
2019-06-08T16:17:47.847Z,4.30
2019-06-08T16:20:18.242Z,3.50
2019-06-08T16:22:48.583Z,6.53
2019-06-08T16:25:18.955Z,5.27
2019-06-08T16:27:49.298Z,3.73
2019-06-08T16:30:19.767Z,4.33
2019-06-08T16:32:50.165Z,4.00
2019-06-08T16:35:20.620Z,10.00
2019-06-08T16:37:50.914Z,3.23
2019-06-08T16:40:21.369Z,4.57
2019-06-08T16:42:51.679Z,5.00
2019-06-08T16:45:22.220Z,6.07
2019-06-08T16:47:52.574Z,4.93
2019-06-08T16:50:24.800Z,3.17
2019-06-08T16:52:55.094Z,5.93
2019-06-08T16:55:25.655Z,2.67
2019-06-08T16:57:56.107Z,6.90
2019-06-08T17:00:31.561Z,5.87
2019-06-08T17:02:58.618Z,3.37
2019-06-08T17:05:29.069Z,6.47
2019-06-08T17:07:59.512Z,4.97
2019-06-08T17:10:30.476Z,4.50
2019-06-08T17:13:00.946Z,4.47
2019-06-08T17:15:31.926Z,6.17
2019-06-08T17:18:02.499Z,3.17
2019-06-08T17:20:34.067Z,3.60
2019-06-08T17:23:04.635Z,5.23
2019-06-08T17:25:35.067Z,3.90
2019-06-08T17:28:05.654Z,4.60
2019-06-08T17:30:37.525Z,3.33
2019-06-08T17:33:08.679Z,4.17
2019-06-08T17:35:39.868Z,3.90
2019-06-08T17:38:10.589Z,3.93
2019-06-08T17:40:42.250Z,2.80
2019-06-08T17:43:12.895Z,3.23
2019-06-08T17:45:43.297Z,5.73
2019-06-08T17:48:13.714Z,4.17
2019-06-08T17:50:44.265Z,3.07
2019-06-08T17:53:14.715Z,4.00
2019-06-08T17:55:45.210Z,3.70
2019-06-08T17:58:15.546Z,4.30
2019-06-08T18:00:46.743Z,5.57
2019-06-08T18:03:17.370Z,4.83
2019-06-08T18:05:48.630Z,5.37
2019-06-08T18:08:19.287Z,3.67
2019-06-08T18:10:49.743Z,3.77
2019-06-08T18:13:20.293Z,5.60
2019-06-08T18:15:50.898Z,4.50
2019-06-08T18:18:21.283Z,4.77
2019-06-08T18:20:52.361Z,8.73
2019-06-08T18:23:22.718Z,8.93
2019-06-08T18:25:53.001Z,5.27
2019-06-08T18:28:23.361Z,5.33
2019-06-08T18:30:53.703Z,6.27
2019-06-08T18:33:24.082Z,7.83
2019-06-08T18:35:54.439Z,17.70
2019-06-08T18:38:27.269Z,14.90
2019-06-08T18:40:57.491Z,5.27
2019-06-08T18:43:28.132Z,13.93
2019-06-08T18:45:58.578Z,43.60
2019-06-08T18:48:28.969Z,19.20
2019-06-08T18:50:59.408Z,9.07
2019-06-08T18:53:29.758Z,6.40
2019-06-08T18:56:00.147Z,33.60
2019-06-08T18:58:30.606Z,94.93
2019-06-08T19:01:00.979Z,27.23
2019-06-08T19:03:31.427Z,41.60
2019-06-08T19:06:01.907Z,22.73
2019-06-08T19:08:32.682Z,55.73
2019-06-08T19:11:02.980Z,85.87
2019-06-08T19:13:33.465Z,78.37
2019-06-08T19:16:03.815Z,39.37
2019-06-08T19:18:34.198Z,35.23
2019-06-08T19:21:04.682Z,69.73
2019-06-08T19:23:37.464Z,26.60
2019-06-08T19:26:07.698Z,34.90
2019-06-08T19:28:44.951Z,123.97
2019-06-08T19:31:11.320Z,67.60
2019-06-08T19:33:42.259Z,51.73
2019-06-08T19:36:12.719Z,44.17
2019-06-08T19:38:43.074Z,88.30
2019-06-08T19:41:13.467Z,47.83
2019-06-08T19:43:47.718Z,33.50
2019-06-08T19:46:18.106Z,62.43
2019-06-08T19:48:54.331Z,28.60
2019-06-08T19:51:20.974Z,21.93
2019-06-08T19:53:54.897Z,20.20
2019-06-08T19:56:23.885Z,113.30
2019-06-08T19:59:01.812Z,61.10
2019-06-08T20:01:27.658Z,33.07
2019-06-08T20:04:01.310Z,19.17
2019-06-08T20:06:30.682Z,11.57
2019-06-08T20:09:01.167Z,42.43
2019-06-08T20:11:31.610Z,23.73
2019-06-08T20:14:02.007Z,58.30
2019-06-08T20:16:32.495Z,49.17
2019-06-08T20:19:03.110Z,13.27
2019-06-08T20:21:33.490Z,19.37
2019-06-08T20:24:04.033Z,13.53
2019-06-08T20:26:34.510Z,17.93
2019-06-08T20:29:13.568Z,17.97
2019-06-08T20:31:38.478Z,64.57
2019-06-08T20:34:08.983Z,21.03
2019-06-08T20:36:39.426Z,18.60
2019-06-08T20:39:09.838Z,9.00
2019-06-08T20:41:40.215Z,9.83
2019-06-08T20:44:10.626Z,44.73
2019-06-08T20:46:41.854Z,10.87
2019-06-08T20:49:12.851Z,8.13
2019-06-08T20:51:44.230Z,8.17
2019-06-08T20:54:17.122Z,12.17
2019-06-08T20:56:47.887Z,8.20
2019-06-08T20:59:29.924Z,8.33
2019-06-08T21:01:52.662Z,5.07
2019-06-08T21:04:24.409Z,10.07
2019-06-08T21:06:57.216Z,8.20
2019-06-08T21:09:27.824Z,6.53
2019-06-08T21:11:58.878Z,6.40
2019-06-08T21:14:29.629Z,6.10
2019-06-08T21:17:00.044Z,5.67
2019-06-08T21:19:30.521Z,4.87
2019-06-08T21:22:00.916Z,5.63
2019-06-08T21:24:31.371Z,7.63
2019-06-08T21:27:01.784Z,6.07
2019-06-08T21:29:47.118Z,13.63
2019-06-08T21:32:04.216Z,9.10
2019-06-08T21:34:34.554Z,8.63
2019-06-08T21:37:04.943Z,19.83
2019-06-08T21:39:36.690Z,32.93
2019-06-08T21:42:07.904Z,8.07
2019-06-08T21:44:38.575Z,18.40
2019-06-08T21:47:08.950Z,9.70
2019-06-08T21:49:39.348Z,9.43
2019-06-08T21:52:09.693Z,19.33
2019-06-08T21:54:40.142Z,11.40
2019-06-08T21:57:10.418Z,13.60
2019-06-08T21:59:40.787Z,15.90
2019-06-08T22:02:11.218Z,8.47
2019-06-08T22:04:41.496Z,7.77
2019-06-08T22:07:11.838Z,10.90
2019-06-08T22:09:50.255Z,11.70
2019-06-08T22:12:20.642Z,19.23
2019-06-08T22:14:51.329Z,11.63
2019-06-08T22:17:22.939Z,9.80
2019-06-08T22:19:53.603Z,8.37
2019-06-08T22:22:23.958Z,14.07
2019-06-08T22:24:55.398Z,7.77
2019-06-08T22:27:27.226Z,6.93
2019-06-08T22:29:58.548Z,6.10
2019-06-08T22:32:29.802Z,6.97
2019-06-08T22:35:01.662Z,6.30
2019-06-08T22:37:32.219Z,7.60
2019-06-08T22:40:03.628Z,6.60
2019-06-08T22:42:34.115Z,6.53
2019-06-08T22:45:04.651Z,5.63
2019-06-08T22:47:35.119Z,6.63
2019-06-08T22:50:07.909Z,6.23
2019-06-08T22:52:38.050Z,7.77
2019-06-08T22:55:10.986Z,5.83
2019-06-08T22:57:40.739Z,5.30
2019-06-08T23:00:17.207Z,6.93
2019-06-08T23:02:44.243Z,3.90
2019-06-08T23:05:14.590Z,6.50
2019-06-08T23:07:44.954Z,7.37
2019-06-08T23:10:17.421Z,5.87
2019-06-08T23:12:47.370Z,5.40
2019-06-08T23:15:18.312Z,6.93
2019-06-08T23:17:48.901Z,5.97
2019-06-08T23:20:19.331Z,6.27
2019-06-08T23:22:50.580Z,6.50
2019-06-08T23:25:21.026Z,5.70
2019-06-08T23:27:51.397Z,5.50
2019-06-08T23:30:21.827Z,6.87
2019-06-08T23:32:52.272Z,5.63
2019-06-08T23:35:22.706Z,7.83
2019-06-08T23:37:52.982Z,6.17
2019-06-08T23:40:23.378Z,5.20
2019-06-08T23:42:53.733Z,4.80
2019-06-08T23:45:24.174Z,6.37
2019-06-08T23:47:57.009Z,4.60
2019-06-08T23:50:27.262Z,5.10
2019-06-08T23:52:59.030Z,5.27
2019-06-08T23:55:29.931Z,4.67
2019-06-08T23:58:01.429Z,3.63
